Time;durP1;ratioP1;P1;durP2;ratioP2;P2;SDS_P1;SDS_P2;PMS_P1;PMS_P2;Temp;Humidity;BMP_temperature;BMP_pressure;BME280_temperature;BME280_humidity;BME280_pressure;Samples;Min_cycle;Max_cycle;Signal;HPM_P1;HPM_P2
2021/08/07 00:02:20;;;;;;;;;;;;;;;24.55;37.00;98944.06;5111676;28;19973;-36
2021/08/07 00:04:45;;;;;;;;;;;;;;;24.65;36.62;98944.88;5111740;28;19962;-36
2021/08/07 00:07:10;;;;;;;;;;;;;;;24.42;36.91;98939.50;5111534;28;20303;-37
2021/08/07 00:09:35;;;;;;;;;;;;;;;24.69;36.75;98943.13;5111341;28;19908;-37
2021/08/07 00:12:01;;;;;;;;;;;;;;;24.85;36.05;98949.72;5111227;28;19907;-36
2021/08/07 00:14:26;;;;;;;;;;;;;;;24.61;36.58;98952.06;5111254;28;19923;-36
2021/08/07 00:16:51;;;;;;;;;;;;;;;24.59;36.66;98953.19;5111350;28;19955;-36
2021/08/07 00:19:16;;;;;;;;;;;;;;;24.68;36.31;98961.38;5111309;28;20371;-36
2021/08/07 00:21:42;;;;;;;;;;;;;;;24.36;37.15;98951.63;5111536;28;19919;-36
2021/08/07 00:24:07;;;;;;;;;;;;;;;24.57;36.56;98965.50;5093160;28;19908;-37
2021/08/07 00:26:32;;;;;;;;;;;;;;;24.29;37.20;98962.94;5111318;28;19914;-37
2021/08/07 00:28:58;;;;;;;;;;;;;;;24.07;37.45;98955.66;5111289;28;19911;-36
2021/08/07 00:31:23;;;;;;;;;;;;;;;24.36;37.05;98951.63;5110861;28;19907;-36
2021/08/07 00:33:48;;;;;;;;;;;;;;;24.33;37.06;98960.41;5111018;28;19998;-36
2021/08/07 00:36:14;;;;;;;;;;;;;;;24.35;36.97;98950.84;5111132;28;20312;-37
2021/08/07 00:38:39;;;;;;;;;;;;;;;24.51;36.70;98950.41;5111104;28;20025;-37
2021/08/07 00:41:04;;;;;;;;;;;;;;;24.76;35.90;98955.13;5111209;28;19954;-37
2021/08/07 00:43:30;;;;;;;;;;;;;;;24.72;36.21;98946.03;5111179;28;19912;-37
2021/08/07 00:45:55;;;;;;;;;;;;;;;24.51;36.56;98943.09;5093083;28;19944;-37
2021/08/07 00:48:20;;;;;;;;;;;;;;;24.24;37.00;98951.41;5110999;28;20367;-37
2021/08/07 00:50:46;;;;;;;;;;;;;;;24.32;36.98;98956.09;5111036;28;19915;-37
2021/08/07 00:53:11;;;;;;;;;;;;;;;24.48;36.52;98948.31;5110941;28;20464;-37
2021/08/07 00:55:36;;;;;;;;;;;;;;;24.56;36.48;98955.72;5092896;28;19908;-37
2021/08/07 00:58:02;;;;;;;;;;;;;;;24.63;36.34;98955.28;5092767;28;19990;-37
2021/08/07 01:00:27;;;;;;;;;;;;;;;24.40;36.72;98960.75;5110857;28;19918;-37
2021/08/07 01:03:15;;;;;;;;;;;;;;;24.63;36.32;98960.72;5110966;28;20290;-37
2021/08/07 01:05:41;;;;;;;;;;;;;;;24.09;37.46;98961.59;5099596;28;19931;-37
2021/08/07 01:08:13;;;;;;;;;;;;;;;23.70;38.17;98957.66;5110960;28;20363;-37
2021/08/07 01:10:57;;;;;;;;;;;;;;;23.76;38.33;98959.16;5092747;28;19914;-37
2021/08/07 01:13:23;;;;;;;;;;;;;;;23.69;38.44;98963.41;5110847;28;19969;-37
2021/08/07 01:15:49;;;;;;;;;;;;;;;23.98;37.90;98965.69;5092519;28;19915;-37
2021/08/07 01:18:15;;;;;;;;;;;;;;;24.28;37.78;98961.38;5110619;28;20292;-37
2021/08/07 01:20:47;;;;;;;;;;;;;;;24.48;37.09;98965.44;5092569;28;19907;-37
2021/08/07 01:23:22;;;;;;;;;;;;;;;23.76;38.55;98961.88;5092568;28;19914;-37
2021/08/07 01:25:56;;;;;;;;;;;;;;;24.14;37.87;98966.91;5110775;28;20006;-36
2021/08/07 01:28:21;;;;;;;;;;;;;;;23.98;37.87;98965.69;5111064;28;19916;-40
2021/08/07 01:30:50;;;;;;;;;;;;;;;23.79;38.33;98965.91;5093680;28;20357;-36
2021/08/07 01:33:16;;;;;;;;;;;;;;;23.88;38.15;98957.81;5112211;28;19914;-38
2021/08/07 01:35:41;;;;;;;;;;;;;;;23.71;38.59;98955.75;5092582;28;19912;-36
2021/08/07 01:38:07;;;;;;;;;;;;;;;23.85;38.36;98963.84;5110732;28;20384;-36
2021/08/07 01:40:32;;;;;;;;;;;;;;;23.89;38.22;98971.06;5110842;28;19911;-36
2021/08/07 01:42:57;;;;;;;;;;;;;;;23.87;38.45;98964.34;5112365;28;20244;-36
2021/08/07 01:45:22;;;;;;;;;;;;;;;23.94;38.74;98964.72;5114176;28;19908;-36
2021/08/07 01:47:49;;;;;;;;;;;;;;;23.55;38.97;98955.31;5114336;28;19973;-36
2021/08/07 01:50:28;;;;;;;;;;;;;;;23.68;38.81;98959.09;5113889;28;20386;-36
2021/08/07 01:52:56;;;;;;;;;;;;;;;23.57;39.04;98953.91;5095881;28;19964;-36
2021/08/07 01:55:23;;;;;;;;;;;;;;;23.79;38.39;98968.59;5114017;28;20350;-36
2021/08/07 01:58:08;;;;;;;;;;;;;;;23.43;39.16;98964.81;5113836;28;19977;-37
2021/08/07 02:00:34;;;;;;;;;;;;;;;23.48;39.10;98965.81;5113074;28;19922;-36
2021/08/07 02:03:00;;;;;;;;;;;;;;;23.62;38.79;98961.13;5114140;28;19986;-36
2021/08/07 02:05:25;;;;;;;;;;;;;;;23.53;38.65;98965.69;5095312;28;19971;-37
2021/08/07 02:07:50;;;;;;;;;;;;;;;23.94;38.01;98968.22;5113848;28;19919;-36
2021/08/07 02:10:16;;;;;;;;;;;;;;;24.07;37.47;98966.53;5113746;28;19908;-36
2021/08/07 02:12:41;;;;;;;;;;;;;;;23.78;37.93;98967.81;5113715;28;20397;-36
2021/08/07 02:15:07;;;;;;;;;;;;;;;24.00;37.53;98960.75;5113834;28;19970;-36
2021/08/07 02:17:32;;;;;;;;;;;;;;;23.86;37.76;98968.19;5095080;28;19920;-36
2021/08/07 02:19:58;;;;;;;;;;;;;;;23.65;38.20;98967.88;5078473;28;19908;-36
2021/08/07 02:22:23;;;;;;;;;;;;;;;23.84;37.62;98954.09;5113497;28;19908;-36
2021/08/07 02:24:48;;;;;;;;;;;;;;;23.65;38.08;98955.09;5113356;28;19931;-37
2021/08/07 02:27:14;;;;;;;;;;;;;;;23.93;37.79;98960.38;5113207;28;19914;-37
2021/08/07 02:29:39;;;;;;;;;;;;;;;23.77;37.76;98965.38;5113297;28;19962;-37
2021/08/07 02:32:04;;;;;;;;;;;;;;;23.83;37.76;98961.44;5095285;28;19907;-37
2021/08/07 02:34:30;;;;;;;;;;;;;;;23.54;38.15;98943.66;5095253;28;19908;-37
2021/08/07 02:36:55;;;;;;;;;;;;;;;23.75;38.02;98975.75;5095154;28;19907;-37
2021/08/07 02:39:21;;;;;;;;;;;;;;;23.67;39.06;98973.78;5113250;28;20252;-36
2021/08/07 02:41:46;;;;;;;;;;;;;;;23.47;38.31;98967.72;5095006;28;19961;-36
2021/08/07 02:44:11;;;;;;;;;;;;;;;23.18;38.84;98968.13;5094678;28;20158;-36
2021/08/07 02:46:37;;;;;;;;;;;;;;;22.97;39.53;98965.03;5112917;28;19950;-36
2021/08/07 02:49:02;;;;;;;;;;;;;;;23.43;38.57;98964.00;5094863;28;19919;-37
2021/08/07 02:51:27;;;;;;;;;;;;;;;23.32;38.77;98962.63;5112859;28;19967;-36
2021/08/07 02:53:53;;;;;;;;;;;;;;;23.46;38.58;98962.63;5094158;28;19915;-37
2021/08/07 02:56:18;;;;;;;;;;;;;;;23.29;38.96;98961.34;5094460;28;20239;-35
2021/08/07 02:58:43;;;;;;;;;;;;;;;23.49;38.60;98967.41;5112592;28;19961;-36
2021/08/07 03:01:09;;;;;;;;;;;;;;;23.28;38.70;98967.88;5094319;28;19965;-36
2021/08/07 03:03:34;;;;;;;;;;;;;;;23.49;38.44;98976.34;5112454;28;20010;-36
2021/08/07 03:05:59;;;;;;;;;;;;;;;24.25;37.40;98977.50;5112541;28;19907;-36
2021/08/07 03:08:24;;;;;;;;;;;;;;;23.86;37.44;98976.34;5112710;28;19943;-36
2021/08/07 03:10:50;;;;;;;;;;;;;;;23.82;37.53;98981.59;5112567;28;19989;-36
2021/08/07 03:13:15;;;;;;;;;;;;;;;23.74;37.86;98976.84;5112480;28;19951;-36
2021/08/07 03:15:40;;;;;;;;;;;;;;;23.66;37.83;98983.81;5112747;28;20263;-36
2021/08/07 03:18:06;;;;;;;;;;;;;;;23.54;37.82;98976.22;5112272;28;19925;-36
2021/08/07 03:20:31;;;;;;;;;;;;;;;23.74;37.49;98977.66;5112582;28;20294;-37
2021/08/07 03:22:58;;;;;;;;;;;;;;;23.59;37.54;98975.34;5112419;28;20302;-36
2021/08/07 03:25:23;;;;;;;;;;;;;;;23.44;37.77;98984.63;5112243;28;20399;-36
2021/08/07 03:27:48;;;;;;;;;;;;;;;23.62;37.62;98986.34;5112212;28;20439;-36
2021/08/07 03:30:14;;;;;;;;;;;;;;;23.72;37.39;98988.03;5112260;28;19908;-36
2021/08/07 03:32:39;;;;;;;;;;;;;;;23.84;37.32;98992.94;5112173;28;20252;-36
2021/08/07 03:35:05;;;;;;;;;;;;;;;23.85;37.04;98996.44;5111913;28;20019;-36
2021/08/07 03:37:31;;;;;;;;;;;;;;;23.48;37.80;99006.53;5112002;28;19911;-36
2021/08/07 03:39:56;;;;;;;;;;;;;;;23.70;37.36;99003.81;5112172;28;20017;-36
2021/08/07 03:42:21;;;;;;;;;;;;;;;23.16;38.15;98984.69;5112198;28;19908;-37
2021/08/07 03:44:46;;;;;;;;;;;;;;;23.67;37.58;99011.81;5111812;28;19998;-36
2021/08/07 03:47:14;;;;;;;;;;;;;;;23.95;37.02;99017.91;5111940;28;20019;-37
2021/08/07 03:49:39;;;;;;;;;;;;;;;23.73;37.46;99013.28;5112278;28;20302;-37
2021/08/07 03:52:04;;;;;;;;;;;;;;;23.44;37.79;99014.50;5111881;28;20410;-36
2021/08/07 03:54:29;;;;;;;;;;;;;;;23.47;37.68;99013.06;5111948;28;19943;-37
2021/08/07 03:56:55;;;;;;;;;;;;;;;23.66;37.40;99010.19;5111987;28;19908;-36
2021/08/07 03:59:20;;;;;;;;;;;;;;;24.02;37.29;99023.72;5111782;28;20014;-36
2021/08/07 04:01:45;;;;;;;;;;;;;;;23.94;36.86;98995.41;5111735;28;19908;-36
2021/08/07 04:04:11;;;;;;;;;;;;;;;24.72;36.62;99021.38;5111554;28;19919;-36
2021/08/07 04:06:36;;;;;;;;;;;;;;;24.26;36.39;99014.44;5092891;28;19908;-36
2021/08/07 04:09:01;;;;;;;;;;;;;;;24.89;35.57;99024.16;5111662;28;20055;-36
2021/08/07 04:11:26;;;;;;;;;;;;;;;24.92;35.28;99037.16;5111496;28;20455;-37
2021/08/07 04:13:52;;;;;;;;;;;;;;;25.42;34.66;99035.16;5111357;28;19930;-36
2021/08/07 04:16:17;;;;;;;;;;;;;;;26.00;34.08;99030.38;5111403;28;20394;-37
2021/08/07 04:18:42;;;;;;;;;;;;;;;26.19;33.24;99028.06;5111448;28;20435;-37
2021/08/07 04:21:08;;;;;;;;;;;;;;;25.51;34.01;99031.34;5111352;28;19914;-36
2021/08/07 04:23:33;;;;;;;;;;;;;;;25.83;33.87;99033.88;5111254;28;19968;-37
2021/08/07 04:25:58;;;;;;;;;;;;;;;25.97;33.61;99039.19;5111180;28;19931;-36
2021/08/07 04:28:23;;;;;;;;;;;;;;;26.20;33.17;99037.88;5111070;28;19926;-36
2021/08/07 04:30:49;;;;;;;;;;;;;;;26.51;32.86;99047.72;5111441;28;19907;-37
2021/08/07 04:33:14;;;;;;;;;;;;;;;26.63;32.73;99042.41;5111085;28;19915;-37
2021/08/07 04:35:39;;;;;;;;;;;;;;;27.05;32.04;99060.81;5111079;28;19961;-37
2021/08/07 04:38:04;;;;;;;;;;;;;;;26.84;32.26;99064.28;5111036;28;19911;-36
2021/08/07 04:40:30;;;;;;;;;;;;;;;27.42;31.48;99072.84;5111220;28;19915;-36
2021/08/07 04:42:55;;;;;;;;;;;;;;;27.83;30.79;99073.94;5111116;28;19931;-37
2021/08/07 04:45:21;;;;;;;;;;;;;;;28.38;30.10;99071.22;5111279;28;19912;-37
2021/08/07 04:47:52;;;;;;;;;;;;;;;28.43;30.04;99073.75;5110954;28;19908;-37
2021/08/07 04:50:17;;;;;;;;;;;;;;;28.98;29.44;99079.88;5111208;28;19907;-37
2021/08/07 04:52:42;;;;;;;;;;;;;;;29.06;29.42;99089.91;5111071;28;19922;-37
2021/08/07 04:55:08;;;;;;;;;;;;;;;29.49;29.06;99087.69;5110999;28;19914;-37
2021/08/07 04:57:33;;;;;;;;;;;;;;;30.07;28.30;99084.69;5110804;28;20405;-37
2021/08/07 04:59:58;;;;;;;;;;;;;;;28.92;29.60;99089.44;5110928;28;20365;-37
2021/08/07 05:02:23;;;;;;;;;;;;;;;28.57;29.96;99101.59;5110871;28;19907;-37
2021/08/07 05:04:49;;;;;;;;;;;;;;;28.96;29.67;99104.84;5111023;28;19911;-37
2021/08/07 05:07:14;;;;;;;;;;;;;;;29.45;29.00;99115.00;5110838;28;20398;-37
2021/08/07 05:09:39;;;;;;;;;;;;;;;30.20;28.12;99124.63;5111014;28;19907;-37
2021/08/07 05:12:05;;;;;;;;;;;;;;;30.58;27.59;99134.31;5110771;28;20412;-37
2021/08/07 05:14:30;;;;;;;;;;;;;;;30.66;27.48;99132.53;5111264;28;19908;-37
2021/08/07 05:16:55;;;;;;;;;;;;;;;30.71;27.36;99137.75;5112475;28;19920;-37
2021/08/07 05:19:20;;;;;;;;;;;;;;;30.50;27.55;99141.56;5114522;28;19911;-37
2021/08/07 05:21:46;;;;;;;;;;;;;;;31.72;26.11;99144.53;5114553;28;19926;-36
2021/08/07 05:24:11;;;;;;;;;;;;;;;31.94;25.67;99145.75;5114708;28;20367;-37
2021/08/07 05:26:36;;;;;;;;;;;;;;;32.14;25.59;99152.09;5114320;28;19907;-38
2021/08/07 05:29:01;;;;;;;;;;;;;;;31.08;26.57;99154.81;5114498;28;19914;-37
2021/08/07 05:31:27;;;;;;;;;;;;;;;31.81;26.38;99169.06;5114420;28;19915;-37
2021/08/07 05:33:52;;;;;;;;;;;;;;;31.76;25.62;99163.88;5114228;28;20387;-37
2021/08/07 05:36:17;;;;;;;;;;;;;;;30.46;27.77;99184.56;5114287;28;19915;-38
2021/08/07 05:38:43;;;;;;;;;;;;;;;31.02;26.96;99174.69;5114270;28;20438;-37
2021/08/07 05:41:09;;;;;;;;;;;;;;;31.37;26.39;99181.00;5113961;28;20447;-37
2021/08/07 05:43:34;;;;;;;;;;;;;;;31.99;25.96;99187.91;5113622;28;19961;-36
2021/08/07 05:45:59;;;;;;;;;;;;;;;31.41;25.96;99183.06;5113994;28;19908;-36
2021/08/07 05:48:25;;;;;;;;;;;;;;;31.56;26.09;99190.50;5114239;28;19908;-36
2021/08/07 05:50:50;;;;;;;;;;;;;;;31.94;25.79;99186.25;5114312;28;19908;-36
2021/08/07 05:53:15;;;;;;;;;;;;;;;31.62;25.82;99191.81;5114229;28;20488;-36
2021/08/07 05:55:40;;;;;;;;;;;;;;;31.73;26.02;99197.56;5113703;28;19933;-37
2021/08/07 05:58:06;;;;;;;;;;;;;;;31.71;26.41;99208.13;5113498;28;19964;-37
2021/08/07 06:00:31;;;;;;;;;;;;;;;32.42;25.51;99205.31;5113952;28;19955;-38
2021/08/07 06:02:56;;;;;;;;;;;;;;;32.91;24.73;99210.19;5113536;28;20002;-38
2021/08/07 06:05:21;;;;;;;;;;;;;;;33.35;24.19;99217.25;5113640;28;19907;-38
2021/08/07 06:07:49;;;;;;;;;;;;;;;33.92;23.64;99212.63;5113914;28;19952;-36
2021/08/07 06:10:14;;;;;;;;;;;;;;;33.83;23.67;99212.91;5113844;28;19912;-37
2021/08/07 06:12:40;;;;;;;;;;;;;;;34.72;23.08;99220.72;5113363;28;20301;-36
2021/08/07 06:15:05;;;;;;;;;;;;;;;34.41;22.98;99216.41;5113652;28;19919;-36
2021/08/07 06:17:30;;;;;;;;;;;;;;;34.34;23.29;99219.88;5112975;28;19966;-36
2021/08/07 06:19:56;;;;;;;;;;;;;;;33.91;23.75;99222.06;5113284;28;19908;-36
2021/08/07 06:22:21;;;;;;;;;;;;;;;34.39;23.11;99219.53;5095038;28;19908;-36
2021/08/07 06:24:46;;;;;;;;;;;;;;;33.88;24.09;99218.06;5113295;28;19917;-38
2021/08/07 06:27:12;;;;;;;;;;;;;;;34.06;23.70;99228.56;5113076;28;19908;-36
2021/08/07 06:29:37;;;;;;;;;;;;;;;33.22;24.28;99230.44;5112020;28;20014;-36
2021/08/07 06:32:02;;;;;;;;;;;;;;;33.77;23.64;99230.94;5113251;28;19951;-37
2021/08/07 06:34:27;;;;;;;;;;;;;;;34.25;23.32;99236.75;5113509;28;19914;-37
2021/08/07 06:36:53;;;;;;;;;;;;;;;34.32;23.17;99236.03;5113250;28;19911;-37
2021/08/07 06:39:18;;;;;;;;;;;;;;;33.87;23.88;99235.81;5113289;28;19961;-37
2021/08/07 06:41:43;;;;;;;;;;;;;;;34.60;23.21;99230.03;5112971;28;20294;-37
2021/08/07 06:44:08;;;;;;;;;;;;;;;35.59;22.10;99233.34;5113282;28;20359;-37
2021/08/07 06:46:34;;;;;;;;;;;;;;;35.60;22.02;99235.72;5112972;28;19947;-37
2021/08/07 06:48:59;;;;;;;;;;;;;;;35.90;22.07;99231.97;5113319;28;20388;-37
2021/08/07 06:51:24;;;;;;;;;;;;;;;36.40;21.11;99232.25;5113008;28;19915;-38
2021/08/07 06:53:51;;;;;;;;;;;;;;;36.67;21.17;99231.13;5113004;28;19959;-38
2021/08/07 06:56:16;;;;;;;;;;;;;;;36.49;21.33;99231.84;5112979;28;19957;-38
2021/08/07 06:58:41;;;;;;;;;;;;;;;35.33;22.37;99245.38;5112858;28;19912;-38
2021/08/07 07:01:06;;;;;;;;;;;;;;;35.60;21.93;99246.78;5112725;28;19930;-38
2021/08/07 07:03:32;;;;;;;;;;;;;;;35.91;21.47;99239.09;5112711;28;19948;-38
2021/08/07 07:05:57;;;;;;;;;;;;;;;36.31;21.48;99234.56;5112726;28;20302;-38
2021/08/07 07:08:22;;;;;;;;;;;;;;;36.42;20.89;99239.34;5112601;28;19911;-38
2021/08/07 07:10:47;;;;;;;;;;;;;;;36.72;20.60;99239.06;5112427;28;20324;-37
2021/08/07 07:13:13;;;;;;;;;;;;;;;37.00;20.67;99235.56;5112371;28;20330;-37
2021/08/07 07:15:38;;;;;;;;;;;;;;;35.91;21.17;99241.06;5112970;28;19968;-37
2021/08/07 07:18:03;;;;;;;;;;;;;;;36.31;20.37;99242.88;5112338;28;19923;-38
2021/08/07 07:20:29;;;;;;;;;;;;;;;36.14;20.58;99249.91;5112440;28;20012;-38
2021/08/07 07:22:54;;;;;;;;;;;;;;;36.13;20.66;99237.22;5112534;28;19908;-38
2021/08/07 07:25:19;;;;;;;;;;;;;;;35.65;20.80;99242.88;5112230;28;19907;-37
2021/08/07 07:27:45;;;;;;;;;;;;;;;35.92;21.02;99250.97;5111897;28;19915;-38
2021/08/07 07:30:10;;;;;;;;;;;;;;;35.84;20.68;99243.81;5112380;28;19908;-38
2021/08/07 07:32:35;;;;;;;;;;;;;;;35.47;20.93;99251.03;5112397;28;19972;-38
2021/08/07 07:35:02;;;;;;;;;;;;;;;35.32;21.50;99247.38;5112011;28;20389;-38
2021/08/07 07:37:28;;;;;;;;;;;;;;;34.89;21.66;99251.69;5112168;28;19912;-38
2021/08/07 07:39:53;;;;;;;;;;;;;;;35.96;20.87;99260.88;5111834;28;20309;-38
2021/08/07 07:42:18;;;;;;;;;;;;;;;35.69;20.95;99252.00;5111689;28;19908;-38
2021/08/07 07:44:44;;;;;;;;;;;;;;;36.38;20.12;99250.41;5111768;28;20353;-36
2021/08/07 07:47:09;;;;;;;;;;;;;;;36.89;19.33;99252.16;5111604;28;19908;-37
2021/08/07 07:49:34;;;;;;;;;;;;;;;36.98;19.17;99251.78;5111765;28;20057;-37
2021/08/07 07:51:59;;;;;;;;;;;;;;;37.12;19.54;99249.03;5111528;28;19987;-36
2021/08/07 07:54:25;;;;;;;;;;;;;;;36.06;19.26;99253.00;5111574;28;20259;-37
2021/08/07 07:56:50;;;;;;;;;;;;;;;36.05;19.68;99252.22;5111255;28;20014;-36
2021/08/07 07:59:15;;;;;;;;;;;;;;;36.44;20.80;99256.38;5111817;28;19995;-38
2021/08/07 08:01:41;;;;;;;;;;;;;;;36.74;20.15;99258.88;5111445;28;20384;-38
2021/08/07 08:04:06;;;;;;;;;;;;;;;36.38;20.00;99258.72;5111818;28;19958;-37
2021/08/07 08:06:32;;;;;;;;;;;;;;;36.82;20.16;99259.69;5111494;28;19964;-37
2021/08/07 08:08:57;;;;;;;;;;;;;;;36.65;20.06;99255.66;5093119;28;19907;-37
2021/08/07 08:11:22;;;;;;;;;;;;;;;37.00;19.69;99259.72;5111182;28;20009;-37
2021/08/07 08:13:48;;;;;;;;;;;;;;;37.22;19.57;99266.88;5110996;28;20359;-37
2021/08/07 08:16:13;;;;;;;;;;;;;;;38.04;18.40;99254.13;5110407;28;19981;-38
2021/08/07 08:18:38;;;;;;;;;;;;;;;38.84;17.84;99252.59;5075644;28;19919;-37
2021/08/07 08:21:05;;;;;;;;;;;;;;;38.97;17.06;99252.94;5110814;28;19919;-37
2021/08/07 08:23:30;;;;;;;;;;;;;;;39.48;16.90;99257.72;5110882;28;19908;-37
2021/08/07 08:25:55;;;;;;;;;;;;;;;39.24;16.82;99259.50;5110642;28;19915;-37
2021/08/07 08:28:21;;;;;;;;;;;;;;;39.35;16.58;99267.75;5110631;28;19966;-37
2021/08/07 08:30:46;;;;;;;;;;;;;;;38.71;17.43;99272.56;5110558;28;19912;-37
2021/08/07 08:33:12;;;;;;;;;;;;;;;39.36;16.77;99261.00;5092454;28;19911;-37
2021/08/07 08:35:37;;;;;;;;;;;;;;;38.03;17.90;99261.66;5110568;28;19908;-37
2021/08/07 08:38:02;;;;;;;;;;;;;;;37.88;17.97;99260.13;5111265;28;19915;-38
2021/08/07 08:40:28;;;;;;;;;;;;;;;37.96;18.04;99250.56;5111071;28;19907;-37
2021/08/07 08:42:53;;;;;;;;;;;;;;;38.83;17.05;99251.03;5111051;28;19908;-37
2021/08/07 08:45:18;;;;;;;;;;;;;;;39.58;16.05;99255.25;5111148;28;20350;-38
2021/08/07 08:47:44;;;;;;;;;;;;;;;38.99;16.04;99242.19;5111087;28;19926;-38
2021/08/07 08:50:09;;;;;;;;;;;;;;;39.33;15.86;99252.69;5110898;28;19918;-38
2021/08/07 08:52:35;;;;;;;;;;;;;;;39.49;15.77;99255.75;5095897;28;20300;-38
2021/08/07 08:55:01;;;;;;;;;;;;;;;38.82;15.99;99250.25;5115067;28;19907;-37
2021/08/07 08:57:26;;;;;;;;;;;;;;;39.15;16.10;99252.81;5114820;28;19919;-38
2021/08/07 08:59:52;;;;;;;;;;;;;;;39.58;15.89;99246.91;5114897;28;19964;-38
2021/08/07 09:02:17;;;;;;;;;;;;;;;38.71;16.72;99247.53;5114660;28;20348;-38
2021/08/07 09:04:43;;;;;;;;;;;;;;;38.33;17.46;99249.31;5114840;28;19912;-38
2021/08/07 09:07:08;;;;;;;;;;;;;;;37.14;18.17;99237.56;5114724;28;19950;-38
2021/08/07 09:09:37;;;;;;;;;;;;;;;37.31;18.27;99236.00;5114783;28;20032;-37
2021/08/07 09:12:02;;;;;;;;;;;;;;;38.63;16.73;99234.88;5114739;28;19911;-38
2021/08/07 09:14:28;;;;;;;;;;;;;;;39.09;16.70;99236.56;5114768;28;20320;-37
2021/08/07 09:17:00;;;;;;;;;;;;;;;39.40;16.50;99231.16;5114278;28;20086;-38
2021/08/07 09:19:26;;;;;;;;;;;;;;;39.38;15.82;99227.19;5114666;28;19973;-38
2021/08/07 09:22:04;;;;;;;;;;;;;;;39.41;15.96;99229.97;5114424;28;19908;-38
2021/08/07 09:24:30;;;;;;;;;;;;;;;39.38;15.96;99232.78;5113956;28;20280;-38
2021/08/07 09:27:01;;;;;;;;;;;;;;;37.79;17.50;99223.66;5114276;28;19908;-38
2021/08/07 09:29:33;;;;;;;;;;;;;;;38.23;17.13;99219.56;5114306;28;19907;-39
2021/08/07 09:31:59;;;;;;;;;;;;;;;37.79;17.08;99213.34;5114375;28;20012;-38
2021/08/07 09:34:24;;;;;;;;;;;;;;;38.74;16.20;99220.13;5114141;28;20420;-38
2021/08/07 09:36:50;;;;;;;;;;;;;;;37.83;17.90;99218.88;5114024;28;19908;-38
2021/08/07 09:39:15;;;;;;;;;;;;;;;37.52;18.17;99221.31;5114077;28;19919;-38
2021/08/07 09:41:56;;;;;;;;;;;;;;;38.11;17.81;99218.81;5114277;28;19914;-38
2021/08/07 09:44:22;;;;;;;;;;;;;;;38.22;17.19;99218.78;5113837;28;20371;-37
2021/08/07 09:46:47;;;;;;;;;;;;;;;38.09;17.47;99221.22;5114055;28;19990;-37
2021/08/07 09:49:12;;;;;;;;;;;;;;;38.14;17.39;99214.47;5113950;28;19915;-38
2021/08/07 09:51:37;;;;;;;;;;;;;;;37.19;18.79;99223.31;5113838;28;19908;-38
2021/08/07 09:54:06;;;;;;;;;;;;;;;36.81;18.69;99220.09;5114116;28;19912;-38
2021/08/07 09:56:46;;;;;;;;;;;;;;;37.00;18.57;99215.38;5113874;28;19907;-37
2021/08/07 09:59:12;;;;;;;;;;;;;;;37.16;18.35;99204.69;5113507;28;19931;-37
2021/08/07 10:01:37;;;;;;;;;;;;;;;37.89;17.73;99206.16;5113516;28;19911;-38
2021/08/07 10:04:06;;;;;;;;;;;;;;;37.27;18.08;99215.78;5112091;28;19938;-37
2021/08/07 10:06:31;;;;;;;;;;;;;;;37.33;18.13;99209.44;5113358;28;19908;-37
2021/08/07 10:08:57;;;;;;;;;;;;;;;37.62;17.79;99194.75;5113658;28;19923;-38
2021/08/07 10:11:26;;;;;;;;;;;;;;;38.05;17.74;99209.28;5113552;28;19956;-37
2021/08/07 10:13:51;;;;;;;;;;;;;;;38.11;17.68;99207.72;5113197;28;19907;-38
2021/08/07 10:16:17;;;;;;;;;;;;;;;37.88;17.20;99202.63;5112913;28;19920;-37
2021/08/07 10:18:42;;;;;;;;;;;;;;;36.90;17.86;99203.06;5113242;28;19934;-37
2021/08/07 10:21:08;;;;;;;;;;;;;;;37.04;17.92;99197.53;5113370;28;20244;-38
2021/08/07 10:23:33;;;;;;;;;;;;;;;36.60;17.94;99188.34;5113592;28;19912;-37
2021/08/07 10:25:58;;;;;;;;;;;;;;;36.73;18.00;99193.56;5095041;28;19908;-37
2021/08/07 10:28:24;;;;;;;;;;;;;;;37.65;17.10;99191.97;5094656;28;20371;-37
2021/08/07 10:30:49;;;;;;;;;;;;;;;37.88;16.99;99182.41;5094687;28;19915;-37
2021/08/07 10:33:14;;;;;;;;;;;;;;;37.72;17.17;99191.97;5095098;28;19907;-38
2021/08/07 10:35:39;;;;;;;;;;;;;;;37.81;17.62;99188.75;5095160;28;20350;-38
2021/08/07 10:38:05;;;;;;;;;;;;;;;38.42;16.55;99182.94;5112990;28;19934;-37
2021/08/07 10:40:30;;;;;;;;;;;;;;;38.03;16.58;99188.69;5113225;28;19996;-37
2021/08/07 10:42:55;;;;;;;;;;;;;;;37.84;16.99;99176.84;5112995;28;19915;-38
2021/08/07 10:45:21;;;;;;;;;;;;;;;37.52;17.18;99174.91;5112848;28;19911;-38
2021/08/07 10:47:47;;;;;;;;;;;;;;;38.16;16.60;99169.59;5112717;28;19907;-38
2021/08/07 10:50:24;;;;;;;;;;;;;;;38.61;16.62;99172.53;5112940;28;19961;-36
2021/08/07 10:52:50;;;;;;;;;;;;;;;37.66;17.54;99176.91;5094274;28;19929;-37
2021/08/07 10:55:34;;;;;;;;;;;;;;;38.19;17.11;99168.81;5112413;28;19923;-37
2021/08/07 10:57:59;;;;;;;;;;;;;;;38.27;17.48;99167.56;5111927;28;19912;-39
2021/08/07 11:00:25;;;;;;;;;;;;;;;38.70;16.78;99156.22;5112586;28;19907;-37
2021/08/07 11:02:51;;;;;;;;;;;;;;;38.34;17.51;99171.09;5112468;28;19908;-37
2021/08/07 11:05:17;;;;;;;;;;;;;;;37.62;17.89;99167.00;5093950;28;20274;-36
2021/08/07 11:07:42;;;;;;;;;;;;;;;38.07;17.41;99161.69;5094089;28;19994;-37
2021/08/07 11:10:08;;;;;;;;;;;;;;;37.66;17.54;99159.47;5112728;28;20394;-37
2021/08/07 11:12:34;;;;;;;;;;;;;;;36.84;18.07;99151.97;5112008;28;19911;-37
2021/08/07 11:15:00;;;;;;;;;;;;;;;38.03;17.88;99150.59;5093498;28;19934;-37
2021/08/07 11:17:26;;;;;;;;;;;;;;;38.36;17.32;99156.00;5111843;28;19941;-37
2021/08/07 11:19:54;;;;;;;;;;;;;;;37.48;17.69;99146.41;5112559;28;20384;-37
2021/08/07 11:22:20;;;;;;;;;;;;;;;37.40;17.96;99144.84;5112424;28;19963;-37
2021/08/07 11:24:48;;;;;;;;;;;;;;;38.05;17.38;99148.22;5111863;28;19907;-37
2021/08/07 11:27:14;;;;;;;;;;;;;;;37.79;17.61;99152.28;5112031;28;19907;-37
2021/08/07 11:29:58;;;;;;;;;;;;;;;37.94;17.71;99164.13;5111942;28;20013;-37
2021/08/07 11:32:24;;;;;;;;;;;;;;;38.12;17.92;99152.97;5111936;28;20431;-37
2021/08/07 11:34:49;;;;;;;;;;;;;;;38.32;16.22;99148.47;5111972;28;19907;-38
2021/08/07 11:37:15;;;;;;;;;;;;;;;38.51;15.53;99138.06;5111896;28;19948;-38
2021/08/07 11:39:59;;;;;;;;;;;;;;;37.94;16.73;99150.25;5111723;28;19912;-38
2021/08/07 11:42:43;;;;;;;;;;;;;;;38.11;16.49;99135.50;5111760;28;19912;-38
2021/08/07 11:45:09;;;;;;;;;;;;;;;38.13;16.70;99135.09;5111639;28;20002;-38
2021/08/07 11:47:42;;;;;;;;;;;;;;;38.75;16.21;99155.78;5111444;28;19946;-38
2021/08/07 11:50:07;;;;;;;;;;;;;;;37.98;16.58;99158.56;5111696;28;19930;-37
2021/08/07 11:52:32;;;;;;;;;;;;;;;37.65;16.60;99155.13;5093697;28;20343;-38
2021/08/07 11:54:57;;;;;;;;;;;;;;;38.64;15.87;99143.94;5111664;28;19914;-38
2021/08/07 11:57:23;;;;;;;;;;;;;;;38.07;16.12;99140.28;5111480;28;19915;-38
2021/08/07 11:59:49;;;;;;;;;;;;;;;38.76;15.76;99149.00;5111833;28;19911;-38
2021/08/07 12:02:15;;;;;;;;;;;;;;;38.72;15.38;99140.69;5111483;28;20070;-38
2021/08/07 12:04:40;;;;;;;;;;;;;;;37.20;16.93;99149.22;5111433;28;20355;-38
2021/08/07 12:07:09;;;;;;;;;;;;;;;37.20;17.42;99133.38;5111445;28;20029;-38
2021/08/07 12:09:35;;;;;;;;;;;;;;;38.25;16.50;99140.22;5111363;28;19915;-38
2021/08/07 12:12:00;;;;;;;;;;;;;;;37.68;16.54;99109.91;5111520;28;19908;-39
2021/08/07 12:14:26;;;;;;;;;;;;;;;37.29;17.56;99130.97;5111509;28;19947;-37
2021/08/07 12:16:51;;;;;;;;;;;;;;;37.80;17.18;99131.66;5111176;28;19916;-37
2021/08/07 12:19:17;;;;;;;;;;;;;;;37.94;16.43;99133.59;5111351;28;19911;-37
2021/08/07 12:21:42;;;;;;;;;;;;;;;37.64;16.82;99126.59;5126874;27;19908;-37
2021/08/07 12:24:11;;;;;;;;;;;;;;;37.36;16.68;99127.41;5111205;28;20355;-37
2021/08/07 12:26:46;;;;;;;;;;;;;;;36.64;17.24;99127.41;5110320;28;20009;-37
2021/08/07 12:29:13;;;;;;;;;;;;;;;37.12;17.43;99124.25;5092891;28;19907;-39
2021/08/07 12:31:54;;;;;;;;;;;;;;;37.71;17.05;99126.53;5110865;28;19972;-37
2021/08/07 12:34:23;;;;;;;;;;;;;;;38.18;16.67;99133.91;5110807;28;19907;-38
2021/08/07 12:36:55;;;;;;;;;;;;;;;38.59;15.62;99122.16;5111036;28;20284;-38
2021/08/07 12:39:20;;;;;;;;;;;;;;;39.62;14.48;99116.84;5111090;28;19912;-38
2021/08/07 12:41:45;;;;;;;;;;;;;;;39.39;15.32;99111.91;5110958;28;19986;-38
2021/08/07 12:44:20;;;;;;;;;;;;;;;39.42;14.41;99113.88;5110847;28;20377;-38